Afrodite — CURM3 — position and weather

sailwx.info

Track history (hours):
 
Tides and Currents Weather Stations Pressure Air Temp Water Temp Dewpoint Dewpoint Depression Visibility Wind Speed Wind Dir Waves Ship Positions

Afrodite

Last reported at 2017-Apr-21 21:08 UTC. Time now 2017-Apr-23 05:41 UTC.
Position N 39°21' W 009°22'.

Length 26 m.

Type: Fishing. MMSI: 263500170.

Date/timePositionNaut miles runAvg speedWind from/ knotsBaromVisibWave heightAir tempDewpointWater temp
2017-Apr-21 21:08N 39°21' W 009°22'0 0.0
2017-Apr-21 21:00N 39°21' W 009°22'0 0.0
2017-Apr-21 20:30N 39°21' W 009°22'0 0.0
2017-Apr-21 20:00N 39°21' W 009°22'0 0.0
2017-Apr-21 19:30N 39°21' W 009°22'0 0.0
2017-Apr-21 19:00N 39°21' W 009°22'4 8.2
2017-Apr-21 18:30N 39°21' W 009°27'5 9.9
2017-Apr-21 18:00N 39°21' W 009°34'4 8.8
2017-Apr-21 17:30N 39°21' W 009°39'0 0.5
2017-Apr-21 17:00N 39°21' W 009°39'1 0.7
2017-Apr-21 16:11N 39°22' W 009°40'3 4.6
2017-Apr-21 15:32N 39°21' W 009°36'11 8.3
2017-Apr-21 14:13N 39°21' W 009°22'0 0.0
2017-Apr-21 13:27N 39°21' W 009°22'0 0.0
2017-Apr-21 01:48N 39°21' W 009°22'0 0.0
2017-Apr-21 01:31N 39°21' W 009°22'0 0.0
2017-Apr-21 00:47N 39°21' W 009°22'0 0.0
2017-Apr-21 00:21N 39°21' W 009°22'0 0.0
2017-Apr-21 00:01N 39°21' W 009°22'0 0.0
2017-Apr-20 23:25N 39°21' W 009°22'0 0.0
2017-Apr-20 23:00N 39°21' W 009°22'2 5.0
2017-Apr-20 22:30N 39°21' W 009°25'5 9.5
2017-Apr-20 22:01N 39°21' W 009°31'5 9.5
2017-Apr-20 21:30N 39°21' W 009°38'1 2.7
2017-Apr-20 20:57N 39°21' W 009°39'0 0.6
2017-Apr-20 20:17N 39°21' W 009°40'0 0.4
2017-Apr-20 19:55N 39°21' W 009°40'0 0.1
2017-Apr-20 19:29N 39°21' W 009°40'1 2.5
2017-Apr-20 18:55N 39°22' W 009°39'1 1.9
2017-Apr-20 18:30N 39°22' W 009°40'1 1.5
2017-Apr-20 18:00N 39°22' W 009°39'0 0.2
2017-Apr-20 17:30N 39°22' W 009°39'0 0.9
2017-Apr-20 16:57N 39°23' W 009°39'13 5.8
2017-Apr-20 14:42N 39°21' W 009°22'  
2017-Apr-12 21:10N 39°21' W 009°24'6 1.7
2017-Apr-12 17:48N 39°25' W 009°28'1 1.5
2017-Apr-12 17:19N 39°26' W 009°28'0 0.7
2017-Apr-12 16:56N 39°26' W 009°28'0 0.3
2017-Apr-12 16:30N 39°26' W 009°28'1 1.5
2017-Apr-12 15:59N 39°25' W 009°28'3 5.9
2017-Apr-12 15:27N 39°27' W 009°32'4 8.4
2017-Apr-12 15:01N 39°25' W 009°36'3 2.9
2017-Apr-12 14:00N 39°22' W 009°35'7 9.9
2017-Apr-12 13:20N 39°21' W 009°27'3 9.9
2017-Apr-12 13:00N 39°21' W 009°22'1 1.1
2017-Apr-12 12:30N 39°21' W 009°22'  
Track history (hours):
 
Tides and Currents Weather Stations Pressure Air Temp Water Temp Dewpoint Dewpoint Depression Visibility Wind Speed Wind Dir Waves Ship Positions

Afrodite

Last reported at 2017-Apr-21 21:08 UTC. Time now 2017-Apr-23 05:41 UTC.
Position N 39°21' W 009°22'.

Length 26 m.

Type: Fishing. MMSI: 263500170.

Date/timePositionNaut miles runAvg speedWind from/ knotsBaromVisibWave heightAir tempDewpointWater temp
2017-Apr-21 21:08N 39°21' W 009°22'0 0.0
2017-Apr-21 21:00N 39°21' W 009°22'0 0.0
2017-Apr-21 20:30N 39°21' W 009°22'0 0.0
2017-Apr-21 20:00N 39°21' W 009°22'0 0.0
2017-Apr-21 19:30N 39°21' W 009°22'0 0.0
2017-Apr-21 19:00N 39°21' W 009°22'4 8.2
2017-Apr-21 18:30N 39°21' W 009°27'5 9.9
2017-Apr-21 18:00N 39°21' W 009°34'4 8.8
2017-Apr-21 17:30N 39°21' W 009°39'0 0.5
2017-Apr-21 17:00N 39°21' W 009°39'1 0.7
2017-Apr-21 16:11N 39°22' W 009°40'3 4.6
2017-Apr-21 15:32N 39°21' W 009°36'11 8.3
2017-Apr-21 14:13N 39°21' W 009°22'0 0.0
2017-Apr-21 13:27N 39°21' W 009°22'0 0.0
2017-Apr-21 01:48N 39°21' W 009°22'0 0.0
2017-Apr-21 01:31N 39°21' W 009°22'0 0.0
2017-Apr-21 00:47N 39°21' W 009°22'0 0.0
2017-Apr-21 00:21N 39°21' W 009°22'0 0.0
2017-Apr-21 00:01N 39°21' W 009°22'0 0.0
2017-Apr-20 23:25N 39°21' W 009°22'0 0.0
2017-Apr-20 23:00N 39°21' W 009°22'2 5.0
2017-Apr-20 22:30N 39°21' W 009°25'5 9.5
2017-Apr-20 22:01N 39°21' W 009°31'5 9.5
2017-Apr-20 21:30N 39°21' W 009°38'1 2.7
2017-Apr-20 20:57N 39°21' W 009°39'0 0.6
2017-Apr-20 20:17N 39°21' W 009°40'0 0.4
2017-Apr-20 19:55N 39°21' W 009°40'0 0.1
2017-Apr-20 19:29N 39°21' W 009°40'1 2.5
2017-Apr-20 18:55N 39°22' W 009°39'1 1.9
2017-Apr-20 18:30N 39°22' W 009°40'1 1.5
2017-Apr-20 18:00N 39°22' W 009°39'0 0.2
2017-Apr-20 17:30N 39°22' W 009°39'0 0.9
2017-Apr-20 16:57N 39°23' W 009°39'13 5.8
2017-Apr-20 14:42N 39°21' W 009°22'  
2017-Apr-12 21:10N 39°21' W 009°24'6 1.7
2017-Apr-12 17:48N 39°25' W 009°28'1 1.5
2017-Apr-12 17:19N 39°26' W 009°28'0 0.7
2017-Apr-12 16:56N 39°26' W 009°28'0 0.3
2017-Apr-12 16:30N 39°26' W 009°28'1 1.5
2017-Apr-12 15:59N 39°25' W 009°28'3 5.9
2017-Apr-12 15:27N 39°27' W 009°32'4 8.4
2017-Apr-12 15:01N 39°25' W 009°36'3 2.9
2017-Apr-12 14:00N 39°22' W 009°35'7 9.9
2017-Apr-12 13:20N 39°21' W 009°27'3 9.9
2017-Apr-12 13:00N 39°21' W 009°22'1 1.1
2017-Apr-12 12:30N 39°21' W 009°22'  

Dump ship's entire track history